sensor_id;sensor_type;location;lat;lon;timestamp;pressure;altitude;pressure_sealevel;temperature;humidity
55755;BME280;41674;52.290;-1.474;2024-03-17T00:02:24;100992.42;;;10.28;100.00
55755;BME280;41674;52.290;-1.474;2024-03-17T00:04:54;100996.89;;;9.10;100.00
55755;BME280;41674;52.290;-1.474;2024-03-17T00:07:23;100997.83;;;9.86;100.00
55755;BME280;41674;52.290;-1.474;2024-03-17T00:09:52;100988.39;;;9.92;100.00
55755;BME280;41674;52.290;-1.474;2024-03-17T00:12:22;100986.97;;;10.37;100.00
55755;BME280;41674;52.290;-1.474;2024-03-17T00:14:52;100994.64;;;10.31;100.00
55755;BME280;41674;52.290;-1.474;2024-03-17T00:17:21;100999.70;;;10.91;100.00
55755;BME280;41674;52.290;-1.474;2024-03-17T00:19:50;100999.41;;;10.05;100.00
55755;BME280;41674;52.290;-1.474;2024-03-17T00:22:20;100995.13;;;10.43;100.00
55755;BME280;41674;52.290;-1.474;2024-03-17T00:24:49;100984.47;;;10.72;100.00
55755;BME280;41674;52.290;-1.474;2024-03-17T00:27:18;100980.21;;;9.94;100.00
55755;BME280;41674;52.290;-1.474;2024-03-17T00:29:48;100973.93;;;10.41;100.00
55755;BME280;41674;52.290;-1.474;2024-03-17T00:32:17;100971.50;;;10.78;100.00
55755;BME280;41674;52.290;-1.474;2024-03-17T00:34:46;100971.97;;;9.37;100.00
55755;BME280;41674;52.290;-1.474;2024-03-17T00:37:16;100979.30;;;9.46;100.00
55755;BME280;41674;52.290;-1.474;2024-03-17T00:39:46;100984.33;;;9.89;100.00
55755;BME280;41674;52.290;-1.474;2024-03-17T00:42:15;100991.54;;;9.73;100.00
55755;BME280;41674;52.290;-1.474;2024-03-17T00:44:44;100990.03;;;9.97;100.00
55755;BME280;41674;52.290;-1.474;2024-03-17T00:47:13;100984.96;;;10.41;100.00
55755;BME280;41674;52.290;-1.474;2024-03-17T00:49:43;100984.05;;;9.65;100.00
55755;BME280;41674;52.290;-1.474;2024-03-17T00:52:12;100974.11;;;9.90;100.00
55755;BME280;41674;52.290;-1.474;2024-03-17T00:54:41;100968.19;;;10.14;100.00
55755;BME280;41674;52.290;-1.474;2024-03-17T00:59:40;100975.72;;;9.99;100.00
55755;BME280;41674;52.290;-1.474;2024-03-17T01:02:10;100969.33;;;10.48;100.00
55755;BME280;41674;52.290;-1.474;2024-03-17T01:04:39;100970.86;;;9.67;100.00
55755;BME280;41674;52.290;-1.474;2024-03-17T01:07:08;100959.26;;;10.82;100.00
55755;BME280;41674;52.290;-1.474;2024-03-17T01:09:37;100956.39;;;11.06;100.00
55755;BME280;41674;52.290;-1.474;2024-03-17T01:12:06;100948.33;;;11.10;100.00
55755;BME280;41674;52.290;-1.474;2024-03-17T01:14:36;100941.03;;;11.15;100.00
55755;BME280;41674;52.290;-1.474;2024-03-17T01:17:05;100942.67;;;10.77;100.00
55755;BME280;41674;52.290;-1.474;2024-03-17T01:19:35;100944.86;;;10.22;100.00
55755;BME280;41674;52.290;-1.474;2024-03-17T01:22:04;100947.48;;;11.03;100.00
55755;BME280;41674;52.290;-1.474;2024-03-17T01:24:33;100949.72;;;10.21;100.00
55755;BME280;41674;52.290;-1.474;2024-03-17T01:27:03;100944.32;;;10.90;100.00
55755;BME280;41674;52.290;-1.474;2024-03-17T01:29:32;100939.80;;;10.96;100.00
55755;BME280;41674;52.290;-1.474;2024-03-17T01:32:01;100939.56;;;10.65;100.00
55755;BME280;41674;52.290;-1.474;2024-03-17T01:34:30;100927.90;;;10.91;100.00
55755;BME280;41674;52.290;-1.474;2024-03-17T01:37:00;100928.93;;;9.72;100.00
55755;BME280;41674;52.290;-1.474;2024-03-17T01:39:30;100931.92;;;9.66;100.00
55755;BME280;41674;52.290;-1.474;2024-03-17T01:41:58;100932.54;;;9.92;100.00
55755;BME280;41674;52.290;-1.474;2024-03-17T01:44:28;100922.66;;;9.91;100.00
55755;BME280;41674;52.290;-1.474;2024-03-17T01:46:57;100911.69;;;10.29;100.00
55755;BME280;41674;52.290;-1.474;2024-03-17T01:49:26;100915.77;;;9.50;100.00
55755;BME280;41674;52.290;-1.474;2024-03-17T01:51:56;100917.10;;;9.24;100.00
55755;BME280;41674;52.290;-1.474;2024-03-17T01:54:25;100914.41;;;10.00;100.00
55755;BME280;41674;52.290;-1.474;2024-03-17T01:56:55;100911.93;;;9.39;100.00
55755;BME280;41674;52.290;-1.474;2024-03-17T01:59:24;100902.72;;;9.91;100.00
55755;BME280;41674;52.290;-1.474;2024-03-17T02:01:52;100906.04;;;9.95;100.00
55755;BME280;41674;52.290;-1.474;2024-03-17T02:04:22;100898.13;;;9.58;100.00
55755;BME280;41674;52.290;-1.474;2024-03-17T02:06:51;100896.19;;;9.75;100.00
55755;BME280;41674;52.290;-1.474;2024-03-17T02:09:20;100897.40;;;9.41;100.00
55755;BME280;41674;52.290;-1.474;2024-03-17T02:11:49;100891.03;;;9.22;100.00
55755;BME280;41674;52.290;-1.474;2024-03-17T02:14:19;100885.73;;;9.90;100.00
55755;BME280;41674;52.290;-1.474;2024-03-17T02:16:48;100884.88;;;10.15;100.00
55755;BME280;41674;52.290;-1.474;2024-03-17T02:19:17;100882.19;;;9.59;100.00
55755;BME280;41674;52.290;-1.474;2024-03-17T02:21:47;100878.57;;;9.23;100.00
55755;BME280;41674;52.290;-1.474;2024-03-17T02:26:45;100867.98;;;9.92;100.00
55755;BME280;41674;52.290;-1.474;2024-03-17T02:29:15;100861.12;;;9.83;100.00
55755;BME280;41674;52.290;-1.474;2024-03-17T02:31:44;100857.21;;;10.79;100.00
55755;BME280;41674;52.290;-1.474;2024-03-17T02:34:14;100857.23;;;11.23;100.00
55755;BME280;41674;52.290;-1.474;2024-03-17T02:36:43;100851.80;;;10.56;100.00
55755;BME280;41674;52.290;-1.474;2024-03-17T02:39:12;100846.84;;;9.46;100.00
55755;BME280;41674;52.290;-1.474;2024-03-17T02:41:42;100844.75;;;9.89;100.00
55755;BME280;41674;52.290;-1.474;2024-03-17T02:44:12;100835.39;;;10.01;100.00
55755;BME280;41674;52.290;-1.474;2024-03-17T02:46:41;100839.62;;;9.48;100.00
55755;BME280;41674;52.290;-1.474;2024-03-17T02:49:11;100839.61;;;10.23;100.00
55755;BME280;41674;52.290;-1.474;2024-03-17T02:51:40;100838.63;;;9.96;100.00
55755;BME280;41674;52.290;-1.474;2024-03-17T02:54:09;100837.16;;;10.58;100.00
55755;BME280;41674;52.290;-1.474;2024-03-17T02:56:39;100834.42;;;10.91;100.00
55755;BME280;41674;52.290;-1.474;2024-03-17T02:59:08;100836.30;;;10.37;100.00
55755;BME280;41674;52.290;-1.474;2024-03-17T03:01:37;100835.85;;;10.31;100.00
55755;BME280;41674;52.290;-1.474;2024-03-17T03:04:06;100837.03;;;11.10;100.00
55755;BME280;41674;52.290;-1.474;2024-03-17T03:06:35;100834.04;;;11.09;100.00
55755;BME280;41674;52.290;-1.474;2024-03-17T03:09:05;100836.12;;;10.40;100.00
55755;BME280;41674;52.290;-1.474;2024-03-17T03:11:34;100833.51;;;10.79;100.00
55755;BME280;41674;52.290;-1.474;2024-03-17T03:14:03;100835.71;;;10.03;100.00
55755;BME280;41674;52.290;-1.474;2024-03-17T03:16:33;100828.80;;;10.22;100.00
55755;BME280;41674;52.290;-1.474;2024-03-17T03:19:02;100823.63;;;10.53;100.00
55755;BME280;41674;52.290;-1.474;2024-03-17T03:21:31;100820.75;;;9.56;100.00
55755;BME280;41674;52.290;-1.474;2024-03-17T03:24:01;100816.14;;;9.90;100.00
55755;BME280;41674;52.290;-1.474;2024-03-17T03:26:30;100813.05;;;9.46;100.00
55755;BME280;41674;52.290;-1.474;2024-03-17T03:29:00;100809.44;;;10.78;100.00
55755;BME280;41674;52.290;-1.474;2024-03-17T03:31:29;100805.45;;;10.02;100.00
55755;BME280;41674;52.290;-1.474;2024-03-17T03:33:59;100806.22;;;10.09;100.00
55755;BME280;41674;52.290;-1.474;2024-03-17T03:36:29;100805.07;;;10.71;100.00
55755;BME280;41674;52.290;-1.474;2024-03-17T03:38:58;100806.03;;;10.48;100.00
55755;BME280;41674;52.290;-1.474;2024-03-17T03:41:27;100802.57;;;10.91;100.00
55755;BME280;41674;52.290;-1.474;2024-03-17T03:43:56;100803.03;;;10.61;100.00
55755;BME280;41674;52.290;-1.474;2024-03-17T03:46:26;100799.66;;;10.31;100.00
55755;BME280;41674;52.290;-1.474;2024-03-17T03:48:55;100795.92;;;10.50;100.00
55755;BME280;41674;52.290;-1.474;2024-03-17T03:51:25;100791.89;;;10.20;100.00
55755;BME280;41674;52.290;-1.474;2024-03-17T03:53:55;100788.94;;;10.79;100.00
55755;BME280;41674;52.290;-1.474;2024-03-17T03:56:24;100788.76;;;11.02;100.00
55755;BME280;41674;52.290;-1.474;2024-03-17T03:58:53;100787.34;;;10.83;100.00
55755;BME280;41674;52.290;-1.474;2024-03-17T04:01:23;100781.68;;;11.50;100.00
55755;BME280;41674;52.290;-1.474;2024-03-17T04:03:52;100779.77;;;11.76;100.00
55755;BME280;41674;52.290;-1.474;2024-03-17T04:06:22;100773.57;;;11.81;100.00
55755;BME280;41674;52.290;-1.474;2024-03-17T04:08:52;100770.65;;;11.69;100.00
55755;BME280;41674;52.290;-1.474;2024-03-17T04:11:21;100768.48;;;11.95;100.00
55755;BME280;41674;52.290;-1.474;2024-03-17T04:13:51;100771.38;;;11.40;100.00
55755;BME280;41674;52.290;-1.474;2024-03-17T04:16:20;100765.54;;;11.98;100.00
55755;BME280;41674;52.290;-1.474;2024-03-17T04:18:50;100766.20;;;12.20;100.00
55755;BME280;41674;52.290;-1.474;2024-03-17T04:21:19;100764.18;;;11.72;100.00
55755;BME280;41674;52.290;-1.474;2024-03-17T04:23:49;100769.69;;;11.31;100.00
55755;BME280;41674;52.290;-1.474;2024-03-17T04:26:19;100761.17;;;11.86;100.00
55755;BME280;41674;52.290;-1.474;2024-03-17T04:28:48;100763.51;;;11.64;100.00
55755;BME280;41674;52.290;-1.474;2024-03-17T04:31:18;100758.33;;;11.59;100.00
55755;BME280;41674;52.290;-1.474;2024-03-17T04:33:47;100764.91;;;10.79;100.00
55755;BME280;41674;52.290;-1.474;2024-03-17T04:36:17;100760.02;;;11.43;100.00
55755;BME280;41674;52.290;-1.474;2024-03-17T04:38:47;100762.04;;;10.77;100.00
55755;BME280;41674;52.290;-1.474;2024-03-17T04:41:16;100759.29;;;11.34;100.00
55755;BME280;41674;52.290;-1.474;2024-03-17T04:43:46;100761.60;;;11.20;100.00
55755;BME280;41674;52.290;-1.474;2024-03-17T04:46:15;100763.48;;;10.63;100.00
55755;BME280;41674;52.290;-1.474;2024-03-17T04:48:45;100766.30;;;10.19;100.00
55755;BME280;41674;52.290;-1.474;2024-03-17T04:53:44;100759.28;;;11.34;100.00
55755;BME280;41674;52.290;-1.474;2024-03-17T04:56:14;100757.15;;;11.10;100.00
55755;BME280;41674;52.290;-1.474;2024-03-17T04:58:43;100754.04;;;11.24;100.00
55755;BME280;41674;52.290;-1.474;2024-03-17T05:01:14;100750.65;;;11.28;100.00
55755;BME280;41674;52.290;-1.474;2024-03-17T05:03:43;100754.41;;;9.99;100.00
55755;BME280;41674;52.290;-1.474;2024-03-17T05:06:12;100755.04;;;10.54;100.00
55755;BME280;41674;52.290;-1.474;2024-03-17T05:08:42;100753.62;;;10.62;100.00
55755;BME280;41674;52.290;-1.474;2024-03-17T05:11:11;100754.47;;;10.78;100.00
55755;BME280;41674;52.290;-1.474;2024-03-17T05:13:41;100747.01;;;11.07;100.00
55755;BME280;41674;52.290;-1.474;2024-03-17T05:16:10;100748.18;;;11.34;100.00
55755;BME280;41674;52.290;-1.474;2024-03-17T05:18:40;100745.43;;;11.37;100.00
55755;BME280;41674;52.290;-1.474;2024-03-17T05:21:10;100749.65;;;10.79;100.00
55755;BME280;41674;52.290;-1.474;2024-03-17T05:23:39;100746.04;;;10.79;100.00
55755;BME280;41674;52.290;-1.474;2024-03-17T05:26:09;100745.93;;;10.68;100.00
55755;BME280;41674;52.290;-1.474;2024-03-17T05:28:38;100741.60;;;11.16;100.00
55755;BME280;41674;52.290;-1.474;2024-03-17T05:31:08;100747.07;;;11.26;100.00
55755;BME280;41674;52.290;-1.474;2024-03-17T05:33:37;100749.54;;;10.71;100.00
55755;BME280;41674;52.290;-1.474;2024-03-17T05:36:07;100744.54;;;10.98;100.00
55755;BME280;41674;52.290;-1.474;2024-03-17T05:38:37;100745.52;;;10.95;100.00
55755;BME280;41674;52.290;-1.474;2024-03-17T05:41:08;100742.22;;;11.65;100.00
55755;BME280;41674;52.290;-1.474;2024-03-17T05:43:37;100743.41;;;11.18;100.00
55755;BME280;41674;52.290;-1.474;2024-03-17T05:46:07;100740.98;;;11.64;100.00
55755;BME280;41674;52.290;-1.474;2024-03-17T05:48:35;100738.98;;;11.84;100.00
55755;BME280;41674;52.290;-1.474;2024-03-17T05:51:05;100737.54;;;11.83;100.00
55755;BME280;41674;52.290;-1.474;2024-03-17T05:53:35;100744.15;;;10.80;100.00
55755;BME280;41674;52.290;-1.474;2024-03-17T05:56:04;100740.31;;;11.30;100.00
55755;BME280;41674;52.290;-1.474;2024-03-17T05:58:33;100744.22;;;10.76;100.00
55755;BME280;41674;52.290;-1.474;2024-03-17T06:01:03;100737.14;;;10.72;100.00
55755;BME280;41674;52.290;-1.474;2024-03-17T06:03:32;100730.83;;;10.89;100.00
55755;BME280;41674;52.290;-1.474;2024-03-17T06:06:02;100730.29;;;10.87;100.00
55755;BME280;41674;52.290;-1.474;2024-03-17T06:08:31;100728.14;;;11.09;100.00
55755;BME280;41674;52.290;-1.474;2024-03-17T06:11:01;100732.72;;;10.36;100.00
55755;BME280;41674;52.290;-1.474;2024-03-17T06:13:30;100731.60;;;10.98;100.00
55755;BME280;41674;52.290;-1.474;2024-03-17T06:16:02;100723.84;;;11.71;100.00
55755;BME280;41674;52.290;-1.474;2024-03-17T06:18:30;100727.62;;;11.09;100.00
55755;BME280;41674;52.290;-1.474;2024-03-17T06:20:59;100730.59;;;10.35;100.00
55755;BME280;41674;52.290;-1.474;2024-03-17T06:23:28;100727.24;;;10.77;100.00
55755;BME280;41674;52.290;-1.474;2024-03-17T06:25:58;100724.63;;;10.11;100.00
55755;BME280;41674;52.290;-1.474;2024-03-17T06:28:28;100726.51;;;9.89;100.00
55755;BME280;41674;52.290;-1.474;2024-03-17T06:30:59;100719.84;;;11.11;100.00
55755;BME280;41674;52.290;-1.474;2024-03-17T06:33:27;100721.49;;;9.91;100.00
55755;BME280;41674;52.290;-1.474;2024-03-17T06:35:56;100716.82;;;11.44;100.00
55755;BME280;41674;52.290;-1.474;2024-03-17T06:38:26;100717.85;;;11.03;100.00
55755;BME280;41674;52.290;-1.474;2024-03-17T06:40:55;100718.15;;;11.11;100.00
55755;BME280;41674;52.290;-1.474;2024-03-17T06:43:25;100720.49;;;10.55;100.00
55755;BME280;41674;52.290;-1.474;2024-03-17T06:45:55;100719.84;;;10.62;100.00
55755;BME280;41674;52.290;-1.474;2024-03-17T06:50:54;100718.74;;;10.71;100.00
55755;BME280;41674;52.290;-1.474;2024-03-17T06:53:24;100716.58;;;10.84;100.00
55755;BME280;41674;52.290;-1.474;2024-03-17T06:55:53;100716.67;;;10.03;100.00
55755;BME280;41674;52.290;-1.474;2024-03-17T06:58:23;100715.12;;;10.21;100.00
55755;BME280;41674;52.290;-1.474;2024-03-17T07:00:53;100715.67;;;10.86;100.00
55755;BME280;41674;52.290;-1.474;2024-03-17T07:03:23;100716.12;;;10.46;100.00
55755;BME280;41674;52.290;-1.474;2024-03-17T07:05:54;100716.89;;;9.81;100.00
55755;BME280;41674;52.290;-1.474;2024-03-17T07:08:21;100716.34;;;10.16;100.00
55755;BME280;41674;52.290;-1.474;2024-03-17T07:10:58;100710.61;;;10.14;100.00
55755;BME280;41674;52.290;-1.474;2024-03-17T07:13:19;100703.52;;;11.11;100.00
55755;BME280;41674;52.290;-1.474;2024-03-17T07:15:49;100710.21;;;10.32;100.00
55755;BME280;41674;52.290;-1.474;2024-03-17T07:18:18;100709.18;;;9.62;100.00
55755;BME280;41674;52.290;-1.474;2024-03-17T07:20:48;100709.25;;;10.92;100.00
55755;BME280;41674;52.290;-1.474;2024-03-17T07:25:53;100703.60;;;10.71;100.00
55755;BME280;41674;52.290;-1.474;2024-03-17T07:28:18;100694.48;;;10.91;100.00
55755;BME280;41674;52.290;-1.474;2024-03-17T07:30:48;100698.49;;;10.63;100.00
55755;BME280;41674;52.290;-1.474;2024-03-17T07:33:16;100703.16;;;10.22;100.00
55755;BME280;41674;52.290;-1.474;2024-03-17T07:35:48;100698.30;;;10.86;100.00
55755;BME280;41674;52.290;-1.474;2024-03-17T07:38:15;100697.80;;;11.34;100.00
55755;BME280;41674;52.290;-1.474;2024-03-17T07:40:55;100694.28;;;11.38;100.00
55755;BME280;41674;52.290;-1.474;2024-03-17T07:43:14;100704.83;;;10.41;100.00
55755;BME280;41674;52.290;-1.474;2024-03-17T07:45:44;100688.73;;;11.17;100.00
55755;BME280;41674;52.290;-1.474;2024-03-17T07:48:14;100690.83;;;11.07;100.00
55755;BME280;41674;52.290;-1.474;2024-03-17T07:50:43;100690.11;;;10.54;100.00
55755;BME280;41674;52.290;-1.474;2024-03-17T07:53:13;100685.79;;;11.57;100.00
55755;BME280;41674;52.290;-1.474;2024-03-17T07:55:42;100684.04;;;12.13;100.00
55755;BME280;41674;52.290;-1.474;2024-03-17T07:58:12;100684.17;;;10.99;100.00
55755;BME280;41674;52.290;-1.474;2024-03-17T08:00:42;100680.62;;;11.37;100.00
55755;BME280;41674;52.290;-1.474;2024-03-17T08:03:11;100680.31;;;11.40;100.00
55755;BME280;41674;52.290;-1.474;2024-03-17T08:05:41;100680.82;;;11.90;100.00
55755;BME280;41674;52.290;-1.474;2024-03-17T08:08:10;100677.95;;;11.45;100.00
55755;BME280;41674;52.290;-1.474;2024-03-17T08:10:40;100675.15;;;11.02;100.00
55755;BME280;41674;52.290;-1.474;2024-03-17T08:13:10;100676.00;;;11.38;100.00
55755;BME280;41674;52.290;-1.474;2024-03-17T08:15:39;100674.40;;;11.07;100.00
55755;BME280;41674;52.290;-1.474;2024-03-17T08:18:09;100681.74;;;10.28;100.00
55755;BME280;41674;52.290;-1.474;2024-03-17T08:20:39;100679.24;;;10.64;100.00
55755;BME280;41674;52.290;-1.474;2024-03-17T08:23:08;100676.58;;;10.04;100.00
55755;BME280;41674;52.290;-1.474;2024-03-17T08:25:38;100673.26;;;10.04;100.00
55755;BME280;41674;52.290;-1.474;2024-03-17T08:28:07;100666.48;;;10.49;100.00
55755;BME280;41674;52.290;-1.474;2024-03-17T08:30:37;100661.73;;;11.80;100.00
55755;BME280;41674;52.290;-1.474;2024-03-17T08:33:06;100659.98;;;11.13;100.00
55755;BME280;41674;52.290;-1.474;2024-03-17T08:35:36;100656.71;;;10.74;100.00
55755;BME280;41674;52.290;-1.474;2024-03-17T08:38:05;100655.34;;;10.78;100.00
55755;BME280;41674;52.290;-1.474;2024-03-17T08:40:37;100656.60;;;11.27;100.00
55755;BME280;41674;52.290;-1.474;2024-03-17T08:43:04;100656.00;;;11.93;100.00
55755;BME280;41674;52.290;-1.474;2024-03-17T08:45:34;100653.89;;;11.66;100.00
55755;BME280;41674;52.290;-1.474;2024-03-17T08:48:04;100651.41;;;11.66;100.00
55755;BME280;41674;52.290;-1.474;2024-03-17T08:50:33;100654.11;;;11.21;100.00
55755;BME280;41674;52.290;-1.474;2024-03-17T08:53:03;100661.07;;;10.21;100.00
55755;BME280;41674;52.290;-1.474;2024-03-17T08:55:32;100659.98;;;10.18;100.00
55755;BME280;41674;52.290;-1.474;2024-03-17T08:58:02;100645.92;;;11.38;100.00
55755;BME280;41674;52.290;-1.474;2024-03-17T09:00:32;100638.39;;;10.97;100.00
55755;BME280;41674;52.290;-1.474;2024-03-17T09:03:01;100641.00;;;10.45;100.00
55755;BME280;41674;52.290;-1.474;2024-03-17T09:05:32;100634.91;;;10.55;100.00
55755;BME280;41674;52.290;-1.474;2024-03-17T09:08:00;100637.53;;;10.46;100.00
55755;BME280;41674;52.290;-1.474;2024-03-17T09:10:30;100633.42;;;10.75;100.00
55755;BME280;41674;52.290;-1.474;2024-03-17T09:13:00;100625.42;;;11.10;100.00
55755;BME280;41674;52.290;-1.474;2024-03-17T09:15:29;100623.24;;;10.98;100.00
55755;BME280;41674;52.290;-1.474;2024-03-17T09:17:59;100618.79;;;10.78;100.00
55755;BME280;41674;52.290;-1.474;2024-03-17T09:20:28;100615.19;;;11.05;100.00
55755;BME280;41674;52.290;-1.474;2024-03-17T09:22:58;100607.46;;;10.87;100.00
55755;BME280;41674;52.290;-1.474;2024-03-17T09:25:27;100604.05;;;11.36;100.00
55755;BME280;41674;52.290;-1.474;2024-03-17T09:27:57;100602.94;;;11.70;100.00
55755;BME280;41674;52.290;-1.474;2024-03-17T09:30:26;100604.01;;;11.46;100.00
55755;BME280;41674;52.290;-1.474;2024-03-17T09:32:56;100612.34;;;10.85;100.00
55755;BME280;41674;52.290;-1.474;2024-03-17T09:35:26;100617.31;;;10.55;100.00
55755;BME280;41674;52.290;-1.474;2024-03-17T09:37:55;100614.67;;;11.61;100.00
55755;BME280;41674;52.290;-1.474;2024-03-17T09:40:25;100617.98;;;11.00;100.00
55755;BME280;41674;52.290;-1.474;2024-03-17T09:42:56;100619.68;;;11.47;100.00
55755;BME280;41674;52.290;-1.474;2024-03-17T09:45:24;100623.91;;;11.85;100.00
55755;BME280;41674;52.290;-1.474;2024-03-17T09:47:54;100619.04;;;11.38;100.00
55755;BME280;41674;52.290;-1.474;2024-03-17T09:50:23;100619.11;;;11.30;100.00
55755;BME280;41674;52.290;-1.474;2024-03-17T09:52:53;100626.37;;;10.49;100.00
55755;BME280;41674;52.290;-1.474;2024-03-17T09:55:22;100628.62;;;11.27;100.00
55755;BME280;41674;52.290;-1.474;2024-03-17T09:57:52;100627.77;;;11.59;100.00
55755;BME280;41674;52.290;-1.474;2024-03-17T10:00:21;100631.40;;;11.64;100.00
55755;BME280;41674;52.290;-1.474;2024-03-17T10:02:51;100633.37;;;12.28;100.00
55755;BME280;41674;52.290;-1.474;2024-03-17T10:07:51;100636.61;;;12.06;100.00
55755;BME280;41674;52.290;-1.474;2024-03-17T10:10:21;100639.70;;;10.69;100.00
55755;BME280;41674;52.290;-1.474;2024-03-17T10:12:50;100635.84;;;10.78;100.00
55755;BME280;41674;52.290;-1.474;2024-03-17T10:15:19;100650.60;;;10.84;100.00
55755;BME280;41674;52.290;-1.474;2024-03-17T10:17:48;100638.03;;;10.99;100.00
55755;BME280;41674;52.290;-1.474;2024-03-17T10:20:19;100643.17;;;11.82;100.00
55755;BME280;41674;52.290;-1.474;2024-03-17T10:22:58;100643.18;;;11.02;100.00
55755;BME280;41674;52.290;-1.474;2024-03-17T10:25:17;100644.61;;;11.14;100.00
55755;BME280;41674;52.290;-1.474;2024-03-17T10:27:46;100644.41;;;11.21;100.00
55755;BME280;41674;52.290;-1.474;2024-03-17T10:30:18;100643.91;;;12.38;100.00
55755;BME280;41674;52.290;-1.474;2024-03-17T10:32:45;100642.56;;;12.16;100.00
55755;BME280;41674;52.290;-1.474;2024-03-17T10:37:53;100639.67;;;12.42;100.00
55755;BME280;41674;52.290;-1.474;2024-03-17T10:40:14;100639.41;;;12.52;100.00
55755;BME280;41674;52.290;-1.474;2024-03-17T10:42:44;100639.75;;;12.09;100.00
55755;BME280;41674;52.290;-1.474;2024-03-17T10:45:14;100643.95;;;11.78;100.00
55755;BME280;41674;52.290;-1.474;2024-03-17T10:47:46;100644.40;;;12.46;100.00
55755;BME280;41674;52.290;-1.474;2024-03-17T10:50:17;100641.49;;;11.96;100.00
55755;BME280;41674;52.290;-1.474;2024-03-17T10:52:44;100643.35;;;11.98;100.00
55755;BME280;41674;52.290;-1.474;2024-03-17T10:55:21;100640.50;;;11.90;100.00
55755;BME280;41674;52.290;-1.474;2024-03-17T10:57:45;100636.77;;;11.79;100.00
55755;BME280;41674;52.290;-1.474;2024-03-17T11:00:13;100634.07;;;11.63;100.00
55755;BME280;41674;52.290;-1.474;2024-03-17T11:02:41;100636.20;;;12.27;100.00
55755;BME280;41674;52.290;-1.474;2024-03-17T11:05:13;100634.49;;;13.16;100.00
55755;BME280;41674;52.290;-1.474;2024-03-17T11:07:40;100634.48;;;12.22;100.00
55755;BME280;41674;52.290;-1.474;2024-03-17T11:10:09;100632.70;;;13.33;100.00
55755;BME280;41674;52.290;-1.474;2024-03-17T11:12:43;100633.73;;;12.61;100.00
55755;BME280;41674;52.290;-1.474;2024-03-17T11:17:37;100634.57;;;13.43;98.76
55755;BME280;41674;52.290;-1.474;2024-03-17T11:20:14;100637.56;;;13.05;97.47
55755;BME280;41674;52.290;-1.474;2024-03-17T11:22:43;100643.90;;;12.94;100.00
55755;BME280;41674;52.290;-1.474;2024-03-17T11:27:40;100647.89;;;13.33;95.95
55755;BME280;41674;52.290;-1.474;2024-03-17T11:32:35;100645.04;;;13.23;92.77
55755;BME280;41674;52.290;-1.474;2024-03-17T11:35:14;100645.23;;;13.20;93.78
55755;BME280;41674;52.290;-1.474;2024-03-17T11:37:41;100638.70;;;14.58;93.68
55755;BME280;41674;52.290;-1.474;2024-03-17T11:42:33;100626.78;;;13.99;90.38
55755;BME280;41674;52.290;-1.474;2024-03-17T11:45:04;100629.91;;;13.62;89.17
55755;BME280;41674;52.290;-1.474;2024-03-17T11:47:37;100632.12;;;13.90;89.46
55755;BME280;41674;52.290;-1.474;2024-03-17T11:50:05;100632.28;;;13.88;89.77
55755;BME280;41674;52.290;-1.474;2024-03-17T11:52:31;100630.69;;;13.51;89.03
55755;BME280;41674;52.290;-1.474;2024-03-17T11:55:00;100635.27;;;14.00;88.71
55755;BME280;41674;52.290;-1.474;2024-03-17T11:57:30;100627.34;;;14.26;84.59
55755;BME280;41674;52.290;-1.474;2024-03-17T11:59:59;100628.07;;;14.43;86.93
55755;BME280;41674;52.290;-1.474;2024-03-17T12:02:31;100630.36;;;14.55;85.19
55755;BME280;41674;52.290;-1.474;2024-03-17T12:05:01;100627.51;;;13.70;87.74
55755;BME280;41674;52.290;-1.474;2024-03-17T12:07:28;100631.83;;;13.86;90.11
55755;BME280;41674;52.290;-1.474;2024-03-17T12:09:57;100627.33;;;14.00;91.37
55755;BME280;41674;52.290;-1.474;2024-03-17T12:12:28;100623.67;;;13.57;90.92
55755;BME280;41674;52.290;-1.474;2024-03-17T12:14:56;100623.20;;;13.69;89.66
55755;BME280;41674;52.290;-1.474;2024-03-17T12:17:26;100627.50;;;14.12;87.85
55755;BME280;41674;52.290;-1.474;2024-03-17T12:19:55;100627.91;;;14.30;84.03
55755;BME280;41674;52.290;-1.474;2024-03-17T12:22:25;100636.39;;;14.12;86.25
55755;BME280;41674;52.290;-1.474;2024-03-17T12:24:55;100630.04;;;13.92;88.84
55755;BME280;41674;52.290;-1.474;2024-03-17T12:27:25;100624.79;;;13.41;90.52
55755;BME280;41674;52.290;-1.474;2024-03-17T12:29:54;100626.29;;;14.34;86.45
55755;BME280;41674;52.290;-1.474;2024-03-17T12:32:25;100624.40;;;14.05;88.47
55755;BME280;41674;52.290;-1.474;2024-03-17T12:34:55;100623.08;;;14.08;87.53
55755;BME280;41674;52.290;-1.474;2024-03-17T12:37:24;100624.99;;;13.26;88.99
55755;BME280;41674;52.290;-1.474;2024-03-17T12:39:51;100618.58;;;13.82;90.56
55755;BME280;41674;52.290;-1.474;2024-03-17T12:42:24;100622.08;;;14.35;88.13
55755;BME280;41674;52.290;-1.474;2024-03-17T12:44:52;100624.36;;;13.92;88.52
55755;BME280;41674;52.290;-1.474;2024-03-17T12:47:21;100613.77;;;13.25;91.96
55755;BME280;41674;52.290;-1.474;2024-03-17T12:49:50;100608.77;;;13.54;90.85
55755;BME280;41674;52.290;-1.474;2024-03-17T12:52:20;100609.27;;;14.04;90.37
55755;BME280;41674;52.290;-1.474;2024-03-17T12:54:57;100609.74;;;14.72;87.81
55755;BME280;41674;52.290;-1.474;2024-03-17T12:57:20;100610.80;;;13.89;90.59
55755;BME280;41674;52.290;-1.474;2024-03-17T12:59:47;100609.84;;;13.50;94.46
55755;BME280;41674;52.290;-1.474;2024-03-17T13:02:17;100605.72;;;13.34;94.36
55755;BME280;41674;52.290;-1.474;2024-03-17T13:04:47;100599.36;;;13.13;96.43
55755;BME280;41674;52.290;-1.474;2024-03-17T13:07:16;100603.42;;;14.07;92.25
55755;BME280;41674;52.290;-1.474;2024-03-17T13:09:45;100593.66;;;15.18;89.15
55755;BME280;41674;52.290;-1.474;2024-03-17T13:12:15;100597.92;;;15.32;86.69